Skip Navigation Links
NOAA logo - Click to go to the NOAA homepage
NOAA's National Weather Service
Alaska Aviation Weather Unit
  NWS logo - Click to go to the NWS homepage
Left Navbar Graphic     23 AKDT = 07 GMT

   
NOAA is celebrating 200 years of science, service, and stewardship. Visit the NOAA 200th celebration Web site to learn more.
USA.gov is the U.S. Government's official Web portal to all Federal, state and local government Web resources and services.
Facebook
NWS on Facebook

Important Change Regarding the AAWU Web Presence

 

Over the last several months, the AAWU has been working to navigate its webpages to a nationally supported server. Security, as well as other needs, have necessitated the change.  In the process, we have made an effort to enhance the functionality of our website, as well as some of our products. As of June 20, 2017, aawu.arh.noaa.gov will be discontinued. The new AAWU web address is weather.gov/aawu. It is now live and will run in-parallel with the old site until it is discontinued. Please send any feedback or questions regarding the new webpages to nws.ar.aawu.webauthors@noaa.gov.  Thank you for your patience during this time of transition.
AAWU Home :: Display TAF Add Bookmark
METAR PAEM 240156Z AUTO 21003KT 10SM SCT045 BKN070 09/M01 A2975 RMK AO2
     SLP133 T00891011=

METAR PAEM 240256Z AUTO 35009KT 10SM -RA BKN046 BKN075 07/03 A2972 RMK
     AO2 RAB28 SLP124 P0000 60000 T00720028 58017=

METAR PAEM 240356Z AUTO VRB05KT 9SM -RA SCT040 OVC048 07/03 A2971 RMK
     AO2 SLP120 P0000 T00670033=

SPECI PAEM 240527Z AUTO 14007KT 10SM -RA BKN022 BKN032 OVC040 06/04
     A2968 RMK AO2 P0000=

METAR PAEM 240556Z AUTO 13006KT 10SM -RA FEW017 BKN024 OVC039 05/03
 A2967 RMK AO2 SLP106 P0000 60001 T00500033 10094 20050 58017=

SPECI PAEM 240622Z AUTO 11005KT 10SM -RA FEW026 OVC037 05/03 A2966 RMK
     AO2 P0001=

SPECI PAEM 240635Z AUTO 10004KT 10SM -RA SCT019 BKN026 OVC036 04/03
     A2966 RMK AO2 P0001=

SPECI PAEM 240642Z AUTO 09005KT 10SM -RA FEW019 BKN036 OVC044 05/03
 A2966 RMK AO2 P0001=

METAR PAEM 240656Z AUTO 10005KT 10SM -RA SCT019 OVC036 04/03 A2965 RMK
     AO2 SLP100 P0001 T00440033=

SPECI PAEM 240707Z AUTO 09005KT 10SM -RA BKN017 OVC034 04/03 A2965 RMK
     AO2 P0001=


NOAA's National Weather Service
Alaska Aviation Weather Unit
6930 Sand Lake Road
Anchorage, AK 99502-1845
Disclaimer
Credits
Glossary
Privacy Policy
About Us
Career Opportunities
Contact AAWU Internet Services Site last modified: April, 17th 2012